sensor_id;sensor_type;location;lat;lon;timestamp;temperature;humidity
14142;DHT22;7151;52.246;4.820;2023-12-20T00:01:00;12.20;91.20
14142;DHT22;7151;52.246;4.820;2023-12-20T00:03:25;12.20;91.20
14142;DHT22;7151;52.246;4.820;2023-12-20T00:05:51;12.20;91.20
14142;DHT22;7151;52.246;4.820;2023-12-20T00:08:17;12.20;91.20
14142;DHT22;7151;52.246;4.820;2023-12-20T00:10:43;12.20;91.20
14142;DHT22;7151;52.246;4.820;2023-12-20T00:13:09;12.10;91.20
14142;DHT22;7151;52.246;4.820;2023-12-20T00:15:35;12.10;91.50
14142;DHT22;7151;52.246;4.820;2023-12-20T00:18:01;12.10;91.10
14142;DHT22;7151;52.246;4.820;2023-12-20T00:20:27;12.10;91.10
14142;DHT22;7151;52.246;4.820;2023-12-20T00:22:58;12.10;91.20
14142;DHT22;7151;52.246;4.820;2023-12-20T00:25:24;12.00;91.10
14142;DHT22;7151;52.246;4.820;2023-12-20T00:27:50;12.00;91.10
14142;DHT22;7151;52.246;4.820;2023-12-20T00:30:16;12.00;91.10
14142;DHT22;7151;52.246;4.820;2023-12-20T00:32:41;12.00;91.10
14142;DHT22;7151;52.246;4.820;2023-12-20T00:35:13;12.00;91.10
14142;DHT22;7151;52.246;4.820;2023-12-20T00:37:38;12.00;91.20
14142;DHT22;7151;52.246;4.820;2023-12-20T00:40:05;11.90;91.10
14142;DHT22;7151;52.246;4.820;2023-12-20T00:42:31;11.90;91.10
14142;DHT22;7151;52.246;4.820;2023-12-20T00:44:58;11.90;91.10
14142;DHT22;7151;52.246;4.820;2023-12-20T00:47:24;11.90;91.10
14142;DHT22;7151;52.246;4.820;2023-12-20T00:49:49;11.90;91.10
14142;DHT22;7151;52.246;4.820;2023-12-20T00:52:15;11.90;91.10
14142;DHT22;7151;52.246;4.820;2023-12-20T00:54:43;11.90;91.10
14142;DHT22;7151;52.246;4.820;2023-12-20T00:57:09;11.90;91.10
14142;DHT22;7151;52.246;4.820;2023-12-20T00:59:34;11.90;91.10
14142;DHT22;7151;52.246;4.820;2023-12-20T01:02:00;11.90;91.20
14142;DHT22;7151;52.246;4.820;2023-12-20T01:04:26;11.90;91.20
14142;DHT22;7151;52.246;4.820;2023-12-20T01:06:52;11.90;91.20
14142;DHT22;7151;52.246;4.820;2023-12-20T01:09:18;11.90;91.10
14142;DHT22;7151;52.246;4.820;2023-12-20T01:11:44;11.80;91.10
14142;DHT22;7151;52.246;4.820;2023-12-20T01:14:12;11.80;91.10
14142;DHT22;7151;52.246;4.820;2023-12-20T01:16:37;11.80;91.10
14142;DHT22;7151;52.246;4.820;2023-12-20T01:19:03;11.80;91.10
14142;DHT22;7151;52.246;4.820;2023-12-20T01:21:29;11.80;91.10
14142;DHT22;7151;52.246;4.820;2023-12-20T01:23:55;11.80;91.10
14142;DHT22;7151;52.246;4.820;2023-12-20T01:26:20;11.80;91.10
14142;DHT22;7151;52.246;4.820;2023-12-20T01:28:46;11.80;91.10
14142;DHT22;7151;52.246;4.820;2023-12-20T01:31:11;11.80;91.10
14142;DHT22;7151;52.246;4.820;2023-12-20T01:33:37;11.80;91.10
14142;DHT22;7151;52.246;4.820;2023-12-20T01:36:04;11.80;91.10
14142;DHT22;7151;52.246;4.820;2023-12-20T01:38:29;11.80;91.10
14142;DHT22;7151;52.246;4.820;2023-12-20T01:40:55;11.80;91.10
14142;DHT22;7151;52.246;4.820;2023-12-20T01:43:21;11.80;91.20
14142;DHT22;7151;52.246;4.820;2023-12-20T01:45:47;11.80;91.20
14142;DHT22;7151;52.246;4.820;2023-12-20T01:48:15;11.80;91.20
14142;DHT22;7151;52.246;4.820;2023-12-20T01:50:42;11.80;91.20
14142;DHT22;7151;52.246;4.820;2023-12-20T01:53:10;11.80;91.20
14142;DHT22;7151;52.246;4.820;2023-12-20T01:55:41;11.80;91.20
14142;DHT22;7151;52.246;4.820;2023-12-20T01:58:09;11.80;91.20
14142;DHT22;7151;52.246;4.820;2023-12-20T02:00:36;11.80;91.20
14142;DHT22;7151;52.246;4.820;2023-12-20T02:03:03;11.80;91.20
14142;DHT22;7151;52.246;4.820;2023-12-20T02:05:34;11.80;91.50
14142;DHT22;7151;52.246;4.820;2023-12-20T02:08:00;11.80;91.10
14142;DHT22;7151;52.246;4.820;2023-12-20T02:10:26;11.80;91.10
14142;DHT22;7151;52.246;4.820;2023-12-20T02:12:52;11.80;91.10
14142;DHT22;7151;52.246;4.820;2023-12-20T02:15:18;11.80;91.10
14142;DHT22;7151;52.246;4.820;2023-12-20T02:17:45;11.80;91.10
14142;DHT22;7151;52.246;4.820;2023-12-20T02:20:12;11.80;91.10
14142;DHT22;7151;52.246;4.820;2023-12-20T02:22:37;11.80;91.10
14142;DHT22;7151;52.246;4.820;2023-12-20T02:25:03;11.80;91.10
14142;DHT22;7151;52.246;4.820;2023-12-20T02:27:29;11.80;91.10
14142;DHT22;7151;52.246;4.820;2023-12-20T02:29:55;11.80;91.10
14142;DHT22;7151;52.246;4.820;2023-12-20T02:32:22;11.80;91.10
14142;DHT22;7151;52.246;4.820;2023-12-20T02:34:51;11.80;91.10
14142;DHT22;7151;52.246;4.820;2023-12-20T02:37:17;11.80;91.10
14142;DHT22;7151;52.246;4.820;2023-12-20T02:39:43;11.80;91.10
14142;DHT22;7151;52.246;4.820;2023-12-20T02:42:08;11.80;91.10
14142;DHT22;7151;52.246;4.820;2023-12-20T02:44:34;11.70;91.00
14142;DHT22;7151;52.246;4.820;2023-12-20T02:47:00;11.70;91.00
14142;DHT22;7151;52.246;4.820;2023-12-20T02:49:25;11.70;91.00
14142;DHT22;7151;52.246;4.820;2023-12-20T02:51:51;11.70;91.00
14142;DHT22;7151;52.246;4.820;2023-12-20T02:54:17;11.70;91.00
14142;DHT22;7151;52.246;4.820;2023-12-20T02:56:42;11.70;91.00
14142;DHT22;7151;52.246;4.820;2023-12-20T02:59:08;11.70;91.00
14142;DHT22;7151;52.246;4.820;2023-12-20T03:01:35;11.70;91.00
14142;DHT22;7151;52.246;4.820;2023-12-20T03:04:01;11.70;91.00
14142;DHT22;7151;52.246;4.820;2023-12-20T03:06:26;11.70;91.00
14142;DHT22;7151;52.246;4.820;2023-12-20T03:08:52;11.70;91.00
14142;DHT22;7151;52.246;4.820;2023-12-20T03:11:18;11.70;91.00
14142;DHT22;7151;52.246;4.820;2023-12-20T03:13:44;11.70;91.00
14142;DHT22;7151;52.246;4.820;2023-12-20T03:16:13;11.70;91.00
14142;DHT22;7151;52.246;4.820;2023-12-20T03:18:39;11.70;91.00
14142;DHT22;7151;52.246;4.820;2023-12-20T03:21:05;11.70;91.00
14142;DHT22;7151;52.246;4.820;2023-12-20T03:23:31;11.70;91.00
14142;DHT22;7151;52.246;4.820;2023-12-20T03:25:59;11.70;90.90
14142;DHT22;7151;52.246;4.820;2023-12-20T03:28:26;11.70;90.90
14142;DHT22;7151;52.246;4.820;2023-12-20T03:30:51;11.70;90.90
14142;DHT22;7151;52.246;4.820;2023-12-20T03:33:17;11.70;90.90
14142;DHT22;7151;52.246;4.820;2023-12-20T03:35:43;11.70;90.90
14142;DHT22;7151;52.246;4.820;2023-12-20T03:38:09;11.70;90.80
14142;DHT22;7151;52.246;4.820;2023-12-20T03:40:34;11.70;90.80
14142;DHT22;7151;52.246;4.820;2023-12-20T03:43:00;11.70;90.80
14142;DHT22;7151;52.246;4.820;2023-12-20T03:45:26;11.70;90.80
14142;DHT22;7151;52.246;4.820;2023-12-20T03:47:52;11.70;90.80
14142;DHT22;7151;52.246;4.820;2023-12-20T03:50:25;11.70;90.80
14142;DHT22;7151;52.246;4.820;2023-12-20T03:52:51;11.60;90.70
14142;DHT22;7151;52.246;4.820;2023-12-20T03:55:17;11.60;90.80
14142;DHT22;7151;52.246;4.820;2023-12-20T03:57:43;11.60;90.80
14142;DHT22;7151;52.246;4.820;2023-12-20T04:00:09;11.60;90.80
14142;DHT22;7151;52.246;4.820;2023-12-20T04:02:40;11.70;90.80
14142;DHT22;7151;52.246;4.820;2023-12-20T04:05:06;11.60;90.80
14142;DHT22;7151;52.246;4.820;2023-12-20T04:07:32;11.70;90.80
14142;DHT22;7151;52.246;4.820;2023-12-20T04:09:58;11.60;90.80
14142;DHT22;7151;52.246;4.820;2023-12-20T04:12:24;11.60;90.80
14142;DHT22;7151;52.246;4.820;2023-12-20T04:14:50;11.70;90.80
14142;DHT22;7151;52.246;4.820;2023-12-20T04:17:16;11.60;90.80
14142;DHT22;7151;52.246;4.820;2023-12-20T04:19:45;11.60;90.80
14142;DHT22;7151;52.246;4.820;2023-12-20T04:22:10;11.60;90.80
14142;DHT22;7151;52.246;4.820;2023-12-20T04:24:36;11.60;90.80
14142;DHT22;7151;52.246;4.820;2023-12-20T04:27:02;11.60;90.80
14142;DHT22;7151;52.246;4.820;2023-12-20T04:29:28;11.60;90.80
14142;DHT22;7151;52.246;4.820;2023-12-20T04:31:53;11.60;90.80
14142;DHT22;7151;52.246;4.820;2023-12-20T04:34:20;11.60;90.70
14142;DHT22;7151;52.246;4.820;2023-12-20T04:36:46;11.60;90.70
14142;DHT22;7151;52.246;4.820;2023-12-20T04:39:12;11.60;90.70
14142;DHT22;7151;52.246;4.820;2023-12-20T04:41:38;11.60;90.70
14142;DHT22;7151;52.246;4.820;2023-12-20T04:44:04;11.60;90.70
14142;DHT22;7151;52.246;4.820;2023-12-20T04:46:30;11.60;90.70
14142;DHT22;7151;52.246;4.820;2023-12-20T04:48:55;11.60;90.70
14142;DHT22;7151;52.246;4.820;2023-12-20T04:51:21;11.60;90.70
14142;DHT22;7151;52.246;4.820;2023-12-20T04:53:47;11.60;90.70
14142;DHT22;7151;52.246;4.820;2023-12-20T04:56:13;11.60;90.70
14142;DHT22;7151;52.246;4.820;2023-12-20T04:58:38;11.60;90.70
14142;DHT22;7151;52.246;4.820;2023-12-20T05:01:08;11.60;90.70
14142;DHT22;7151;52.246;4.820;2023-12-20T05:03:35;11.60;90.70
14142;DHT22;7151;52.246;4.820;2023-12-20T05:06:00;11.60;90.70
14142;DHT22;7151;52.246;4.820;2023-12-20T05:08:26;11.60;90.60
14142;DHT22;7151;52.246;4.820;2023-12-20T05:10:54;11.60;90.70
14142;DHT22;7151;52.246;4.820;2023-12-20T05:13:20;11.60;90.70
14142;DHT22;7151;52.246;4.820;2023-12-20T05:15:46;11.60;90.70
14142;DHT22;7151;52.246;4.820;2023-12-20T05:18:12;11.60;90.70
14142;DHT22;7151;52.246;4.820;2023-12-20T05:20:38;11.60;90.70
14142;DHT22;7151;52.246;4.820;2023-12-20T05:23:04;11.60;90.70
14142;DHT22;7151;52.246;4.820;2023-12-20T05:25:29;11.60;90.70
14142;DHT22;7151;52.246;4.820;2023-12-20T05:27:55;11.60;90.70
14142;DHT22;7151;52.246;4.820;2023-12-20T05:30:21;11.60;90.70
14142;DHT22;7151;52.246;4.820;2023-12-20T05:32:47;11.60;90.70
14142;DHT22;7151;52.246;4.820;2023-12-20T05:35:13;11.60;90.70
14142;DHT22;7151;52.246;4.820;2023-12-20T05:37:38;11.60;90.70
14142;DHT22;7151;52.246;4.820;2023-12-20T05:40:05;11.60;90.70
14142;DHT22;7151;52.246;4.820;2023-12-20T05:42:30;11.60;90.70
14142;DHT22;7151;52.246;4.820;2023-12-20T05:44:56;11.60;90.70
14142;DHT22;7151;52.246;4.820;2023-12-20T05:47:22;11.60;90.70
14142;DHT22;7151;52.246;4.820;2023-12-20T05:49:47;11.70;90.70
14142;DHT22;7151;52.246;4.820;2023-12-20T05:52:13;11.70;90.70
14142;DHT22;7151;52.246;4.820;2023-12-20T05:54:40;11.70;90.80
14142;DHT22;7151;52.246;4.820;2023-12-20T05:57:06;11.70;90.70
14142;DHT22;7151;52.246;4.820;2023-12-20T05:59:31;11.70;90.70
14142;DHT22;7151;52.246;4.820;2023-12-20T06:01:57;11.70;90.70
14142;DHT22;7151;52.246;4.820;2023-12-20T06:04:23;11.60;90.70
14142;DHT22;7151;52.246;4.820;2023-12-20T06:06:48;11.70;90.80
14142;DHT22;7151;52.246;4.820;2023-12-20T06:09:14;11.70;90.80
14142;DHT22;7151;52.246;4.820;2023-12-20T06:11:40;11.70;90.80
14142;DHT22;7151;52.246;4.820;2023-12-20T06:14:06;11.70;90.80
14142;DHT22;7151;52.246;4.820;2023-12-20T06:16:32;11.70;90.70
14142;DHT22;7151;52.246;4.820;2023-12-20T06:18:57;11.80;90.70
14142;DHT22;7151;52.246;4.820;2023-12-20T06:21:23;11.80;90.70
14142;DHT22;7151;52.246;4.820;2023-12-20T06:23:49;11.80;90.70
14142;DHT22;7151;52.246;4.820;2023-12-20T06:26:14;11.80;90.80
14142;DHT22;7151;52.246;4.820;2023-12-20T06:28:40;11.80;90.70
14142;DHT22;7151;52.246;4.820;2023-12-20T06:31:06;11.80;90.70
14142;DHT22;7151;52.246;4.820;2023-12-20T06:33:31;11.80;90.70
14142;DHT22;7151;52.246;4.820;2023-12-20T06:35:57;11.80;90.80
14142;DHT22;7151;52.246;4.820;2023-12-20T06:38:23;11.80;90.70
14142;DHT22;7151;52.246;4.820;2023-12-20T06:40:48;11.80;90.80
14142;DHT22;7151;52.246;4.820;2023-12-20T06:43:14;11.80;90.80
14142;DHT22;7151;52.246;4.820;2023-12-20T06:45:40;11.80;90.80
14142;DHT22;7151;52.246;4.820;2023-12-20T06:48:06;11.80;90.80
14142;DHT22;7151;52.246;4.820;2023-12-20T06:50:32;11.80;90.80
14142;DHT22;7151;52.246;4.820;2023-12-20T06:52:57;11.80;90.70
14142;DHT22;7151;52.246;4.820;2023-12-20T06:55:23;11.80;90.80
14142;DHT22;7151;52.246;4.820;2023-12-20T06:57:49;11.80;90.70
14142;DHT22;7151;52.246;4.820;2023-12-20T07:00:15;11.80;90.70
14142;DHT22;7151;52.246;4.820;2023-12-20T07:02:40;11.80;90.70
14142;DHT22;7151;52.246;4.820;2023-12-20T07:05:06;11.80;90.80
14142;DHT22;7151;52.246;4.820;2023-12-20T07:07:32;11.80;90.80
14142;DHT22;7151;52.246;4.820;2023-12-20T07:09:58;11.80;90.80
14142;DHT22;7151;52.246;4.820;2023-12-20T07:12:23;11.80;90.80
14142;DHT22;7151;52.246;4.820;2023-12-20T07:14:49;11.80;90.80
14142;DHT22;7151;52.246;4.820;2023-12-20T07:17:14;11.80;90.80
14142;DHT22;7151;52.246;4.820;2023-12-20T07:19:42;11.80;90.80
14142;DHT22;7151;52.246;4.820;2023-12-20T07:22:08;11.80;90.80
14142;DHT22;7151;52.246;4.820;2023-12-20T07:24:34;11.80;90.80
14142;DHT22;7151;52.246;4.820;2023-12-20T07:27:00;11.80;90.80
14142;DHT22;7151;52.246;4.820;2023-12-20T07:29:26;11.80;90.80
14142;DHT22;7151;52.246;4.820;2023-12-20T07:31:53;11.80;90.80
14142;DHT22;7151;52.246;4.820;2023-12-20T07:34:20;11.80;90.80
14142;DHT22;7151;52.246;4.820;2023-12-20T07:36:45;11.80;90.70
14142;DHT22;7151;52.246;4.820;2023-12-20T07:39:11;11.80;90.80
14142;DHT22;7151;52.246;4.820;2023-12-20T07:41:36;11.80;90.80
14142;DHT22;7151;52.246;4.820;2023-12-20T07:44:03;11.80;90.80
14142;DHT22;7151;52.246;4.820;2023-12-20T07:46:29;11.80;90.80
14142;DHT22;7151;52.246;4.820;2023-12-20T07:48:55;11.80;90.80
14142;DHT22;7151;52.246;4.820;2023-12-20T07:51:20;11.80;90.70
14142;DHT22;7151;52.246;4.820;2023-12-20T07:53:46;11.80;90.80
14142;DHT22;7151;52.246;4.820;2023-12-20T07:56:19;11.80;90.70
14142;DHT22;7151;52.246;4.820;2023-12-20T07:58:45;11.80;90.70
14142;DHT22;7151;52.246;4.820;2023-12-20T08:01:11;11.80;90.70
14142;DHT22;7151;52.246;4.820;2023-12-20T08:03:38;11.80;90.80
14142;DHT22;7151;52.246;4.820;2023-12-20T08:06:04;11.90;90.80
14142;DHT22;7151;52.246;4.820;2023-12-20T08:08:30;11.90;90.80
14142;DHT22;7151;52.246;4.820;2023-12-20T08:10:55;11.90;90.80
14142;DHT22;7151;52.246;4.820;2023-12-20T08:13:24;11.90;90.80
14142;DHT22;7151;52.246;4.820;2023-12-20T08:15:52;11.90;90.80
14142;DHT22;7151;52.246;4.820;2023-12-20T08:18:18;11.90;90.80
14142;DHT22;7151;52.246;4.820;2023-12-20T08:20:44;11.90;90.80
14142;DHT22;7151;52.246;4.820;2023-12-20T08:23:09;11.90;90.80
14142;DHT22;7151;52.246;4.820;2023-12-20T08:25:35;11.90;90.90
14142;DHT22;7151;52.246;4.820;2023-12-20T08:28:02;12.00;90.90
14142;DHT22;7151;52.246;4.820;2023-12-20T08:30:28;12.00;90.90
14142;DHT22;7151;52.246;4.820;2023-12-20T08:32:55;12.00;90.90
14142;DHT22;7151;52.246;4.820;2023-12-20T08:35:20;12.00;90.90
14142;DHT22;7151;52.246;4.820;2023-12-20T08:37:46;12.00;90.90
14142;DHT22;7151;52.246;4.820;2023-12-20T08:40:12;12.00;90.90
14142;DHT22;7151;52.246;4.820;2023-12-20T08:42:37;12.00;90.90
14142;DHT22;7151;52.246;4.820;2023-12-20T08:45:03;12.10;90.90
14142;DHT22;7151;52.246;4.820;2023-12-20T08:47:29;12.10;90.90
14142;DHT22;7151;52.246;4.820;2023-12-20T08:49:55;12.10;90.90
14142;DHT22;7151;52.246;4.820;2023-12-20T08:52:23;12.10;90.90
14142;DHT22;7151;52.246;4.820;2023-12-20T08:54:50;12.10;90.90
14142;DHT22;7151;52.246;4.820;2023-12-20T08:57:19;12.10;90.90
14142;DHT22;7151;52.246;4.820;2023-12-20T08:59:46;12.10;90.80
14142;DHT22;7151;52.246;4.820;2023-12-20T09:02:12;12.10;90.90
14142;DHT22;7151;52.246;4.820;2023-12-20T09:04:37;12.10;90.80
14142;DHT22;7151;52.246;4.820;2023-12-20T09:07:03;12.10;90.80
14142;DHT22;7151;52.246;4.820;2023-12-20T09:09:29;12.10;90.80
14142;DHT22;7151;52.246;4.820;2023-12-20T09:11:56;12.20;90.80
14142;DHT22;7151;52.246;4.820;2023-12-20T09:14:21;12.20;90.90
14142;DHT22;7151;52.246;4.820;2023-12-20T09:16:47;12.20;90.90
14142;DHT22;7151;52.246;4.820;2023-12-20T09:19:13;12.20;90.90
14142;DHT22;7151;52.246;4.820;2023-12-20T09:21:38;12.20;90.90
14142;DHT22;7151;52.246;4.820;2023-12-20T09:24:04;12.20;90.90
14142;DHT22;7151;52.246;4.820;2023-12-20T09:26:29;12.20;90.90
14142;DHT22;7151;52.246;4.820;2023-12-20T09:28:55;12.20;90.90
14142;DHT22;7151;52.246;4.820;2023-12-20T09:31:21;12.20;90.90
14142;DHT22;7151;52.246;4.820;2023-12-20T09:33:47;12.20;90.90
14142;DHT22;7151;52.246;4.820;2023-12-20T09:36:13;12.20;90.90
14142;DHT22;7151;52.246;4.820;2023-12-20T09:38:39;12.20;90.90
14142;DHT22;7151;52.246;4.820;2023-12-20T09:41:05;12.30;91.00
14142;DHT22;7151;52.246;4.820;2023-12-20T09:43:32;12.30;90.90
14142;DHT22;7151;52.246;4.820;2023-12-20T09:46:04;12.30;91.00
14142;DHT22;7151;52.246;4.820;2023-12-20T09:48:31;12.30;91.00
14142;DHT22;7151;52.246;4.820;2023-12-20T09:50:58;12.30;91.00
14142;DHT22;7151;52.246;4.820;2023-12-20T09:53:25;12.30;91.00
14142;DHT22;7151;52.246;4.820;2023-12-20T09:55:58;12.30;91.00
14142;DHT22;7151;52.246;4.820;2023-12-20T09:58:27;12.30;91.00
14142;DHT22;7151;52.246;4.820;2023-12-20T10:00:53;12.30;91.00
14142;DHT22;7151;52.246;4.820;2023-12-20T10:03:24;12.30;91.00
14142;DHT22;7151;52.246;4.820;2023-12-20T10:05:54;12.30;91.00
14142;DHT22;7151;52.246;4.820;2023-12-20T10:08:21;12.30;91.00
14142;DHT22;7151;52.246;4.820;2023-12-20T10:10:48;12.30;91.00
14142;DHT22;7151;52.246;4.820;2023-12-20T10:13:15;12.40;91.00
14142;DHT22;7151;52.246;4.820;2023-12-20T10:15:41;12.40;91.00
14142;DHT22;7151;52.246;4.820;2023-12-20T10:18:07;12.40;91.00
14142;DHT22;7151;52.246;4.820;2023-12-20T10:20:33;12.40;91.10
14142;DHT22;7151;52.246;4.820;2023-12-20T10:23:00;12.40;91.10
14142;DHT22;7151;52.246;4.820;2023-12-20T10:25:26;12.40;91.10
14142;DHT22;7151;52.246;4.820;2023-12-20T10:28:12;12.40;91.00
14142;DHT22;7151;52.246;4.820;2023-12-20T10:30:39;12.50;91.00
14142;DHT22;7151;52.246;4.820;2023-12-20T10:33:07;12.50;91.00
14142;DHT22;7151;52.246;4.820;2023-12-20T10:35:36;12.50;91.00
14142;DHT22;7151;52.246;4.820;2023-12-20T10:38:06;12.50;91.00
14142;DHT22;7151;52.246;4.820;2023-12-20T10:40:35;12.50;91.00
14142;DHT22;7151;52.246;4.820;2023-12-20T10:43:03;12.50;91.00
14142;DHT22;7151;52.246;4.820;2023-12-20T10:45:28;12.50;91.00
14142;DHT22;7151;52.246;4.820;2023-12-20T10:47:55;12.60;91.00
14142;DHT22;7151;52.246;4.820;2023-12-20T10:50:21;12.60;91.00
14142;DHT22;7151;52.246;4.820;2023-12-20T10:52:47;12.60;91.00
14142;DHT22;7151;52.246;4.820;2023-12-20T10:55:14;12.60;91.00
14142;DHT22;7151;52.246;4.820;2023-12-20T10:57:40;12.70;91.00
14142;DHT22;7151;52.246;4.820;2023-12-20T11:00:08;12.70;91.00
14142;DHT22;7151;52.246;4.820;2023-12-20T11:02:39;12.80;91.00
14142;DHT22;7151;52.246;4.820;2023-12-20T11:13:53;13.10;91.40
14142;DHT22;7151;52.246;4.820;2023-12-20T11:16:20;13.20;91.10
14142;DHT22;7151;52.246;4.820;2023-12-20T11:18:45;13.20;90.90
14142;DHT22;7151;52.246;4.820;2023-12-20T11:21:11;13.30;90.80
14142;DHT22;7151;52.246;4.820;2023-12-20T11:23:39;13.20;90.70
14142;DHT22;7151;52.246;4.820;2023-12-20T11:26:07;13.20;90.60
14142;DHT22;7151;52.246;4.820;2023-12-20T11:28:33;13.20;90.60
14142;DHT22;7151;52.246;4.820;2023-12-20T11:31:01;13.20;90.60
14142;DHT22;7151;52.246;4.820;2023-12-20T11:35:58;13.10;90.60
14142;DHT22;7151;52.246;4.820;2023-12-20T11:38:25;13.10;90.50
14142;DHT22;7151;52.246;4.820;2023-12-20T11:40:53;13.10;90.50
14142;DHT22;7151;52.246;4.820;2023-12-20T11:43:36;13.00;90.50
14142;DHT22;7151;52.246;4.820;2023-12-20T11:46:07;13.00;90.50
14142;DHT22;7151;52.246;4.820;2023-12-20T11:48:35;13.00;90.50
14142;DHT22;7151;52.246;4.820;2023-12-20T11:51:01;13.00;90.50
14142;DHT22;7151;52.246;4.820;2023-12-20T11:53:29;13.00;90.60
14142;DHT22;7151;52.246;4.820;2023-12-20T11:55:56;13.00;90.60
14142;DHT22;7151;52.246;4.820;2023-12-20T11:58:22;13.00;90.70
14142;DHT22;7151;52.246;4.820;2023-12-20T12:00:49;13.00;90.90
14142;DHT22;7151;52.246;4.820;2023-12-20T12:03:15;13.00;90.80
14142;DHT22;7151;52.246;4.820;2023-12-20T12:05:41;13.20;90.90
14142;DHT22;7151;52.246;4.820;2023-12-20T12:08:07;13.10;90.70
14142;DHT22;7151;52.246;4.820;2023-12-20T12:10:33;13.10;90.70
14142;DHT22;7151;52.246;4.820;2023-12-20T12:12:59;13.10;90.90
14142;DHT22;7151;52.246;4.820;2023-12-20T12:15:26;13.10;90.90
14142;DHT22;7151;52.246;4.820;2023-12-20T12:17:55;13.20;90.90
14142;DHT22;7151;52.246;4.820;2023-12-20T12:20:22;13.20;90.80
14142;DHT22;7151;52.246;4.820;2023-12-20T12:23:22;13.20;90.70
14142;DHT22;7151;52.246;4.820;2023-12-20T12:25:48;13.20;90.70
14142;DHT22;7151;52.246;4.820;2023-12-20T12:28:14;13.20;90.60
14142;DHT22;7151;52.246;4.820;2023-12-20T12:30:40;13.20;90.60
14142;DHT22;7151;52.246;4.820;2023-12-20T12:33:05;13.20;90.60
14142;DHT22;7151;52.246;4.820;2023-12-20T12:35:31;13.10;90.50
14142;DHT22;7151;52.246;4.820;2023-12-20T12:37:59;13.10;90.50
14142;DHT22;7151;52.246;4.820;2023-12-20T12:40:25;13.10;90.50
14142;DHT22;7151;52.246;4.820;2023-12-20T12:42:51;13.10;90.50
14142;DHT22;7151;52.246;4.820;2023-12-20T12:45:17;13.10;90.40
14142;DHT22;7151;52.246;4.820;2023-12-20T12:47:42;13.10;90.40
14142;DHT22;7151;52.246;4.820;2023-12-20T12:50:08;13.00;90.40
14142;DHT22;7151;52.246;4.820;2023-12-20T12:52:35;13.00;90.40
14142;DHT22;7151;52.246;4.820;2023-12-20T12:55:00;13.00;90.50
14142;DHT22;7151;52.246;4.820;2023-12-20T12:57:26;13.00;90.50
14142;DHT22;7151;52.246;4.820;2023-12-20T12:59:52;13.00;90.50
14142;DHT22;7151;52.246;4.820;2023-12-20T13:02:17;13.00;90.50
14142;DHT22;7151;52.246;4.820;2023-12-20T13:04:43;13.00;90.50
14142;DHT22;7151;52.246;4.820;2023-12-20T13:07:10;13.00;90.50
14142;DHT22;7151;52.246;4.820;2023-12-20T13:09:38;13.00;90.40
14142;DHT22;7151;52.246;4.820;2023-12-20T13:12:05;13.00;90.50
14142;DHT22;7151;52.246;4.820;2023-12-20T13:14:35;13.00;90.40
14142;DHT22;7151;52.246;4.820;2023-12-20T13:17:02;13.00;90.40
14142;DHT22;7151;52.246;4.820;2023-12-20T13:19:29;13.00;90.40
14142;DHT22;7151;52.246;4.820;2023-12-20T13:21:55;13.00;90.40
14142;DHT22;7151;52.246;4.820;2023-12-20T13:24:21;13.00;90.40
14142;DHT22;7151;52.246;4.820;2023-12-20T13:26:47;13.00;90.40
14142;DHT22;7151;52.246;4.820;2023-12-20T13:29:12;13.00;90.40
14142;DHT22;7151;52.246;4.820;2023-12-20T13:31:38;13.00;90.40
14142;DHT22;7151;52.246;4.820;2023-12-20T13:34:05;13.00;90.50
14142;DHT22;7151;52.246;4.820;2023-12-20T13:36:31;13.00;90.70
14142;DHT22;7151;52.246;4.820;2023-12-20T13:38:57;13.10;90.70
14142;DHT22;7151;52.246;4.820;2023-12-20T13:41:22;13.10;90.60
14142;DHT22;7151;52.246;4.820;2023-12-20T13:43:48;13.10;90.50
14142;DHT22;7151;52.246;4.820;2023-12-20T13:46:14;13.10;90.50
14142;DHT22;7151;52.246;4.820;2023-12-20T13:48:40;13.10;90.50
14142;DHT22;7151;52.246;4.820;2023-12-20T13:51:06;13.10;90.40
14142;DHT22;7151;52.246;4.820;2023-12-20T13:53:33;13.10;90.40
14142;DHT22;7151;52.246;4.820;2023-12-20T13:55:58;13.10;90.40
14142;DHT22;7151;52.246;4.820;2023-12-20T13:58:25;13.10;90.40
14142;DHT22;7151;52.246;4.820;2023-12-20T14:00:51;13.10;90.40
14142;DHT22;7151;52.246;4.820;2023-12-20T14:03:16;13.10;90.40
14142;DHT22;7151;52.246;4.820;2023-12-20T14:05:42;13.10;90.40
14142;DHT22;7151;52.246;4.820;2023-12-20T14:08:08;13.10;90.50
14142;DHT22;7151;52.246;4.820;2023-12-20T14:10:34;13.00;90.40
14142;DHT22;7151;52.246;4.820;2023-12-20T14:13:00;13.00;90.50
14142;DHT22;7151;52.246;4.820;2023-12-20T14:15:26;13.00;90.50
14142;DHT22;7151;52.246;4.820;2023-12-20T14:17:51;13.00;90.50
14142;DHT22;7151;52.246;4.820;2023-12-20T14:20:19;13.00;90.50
14142;DHT22;7151;52.246;4.820;2023-12-20T14:22:44;13.00;90.50
14142;DHT22;7151;52.246;4.820;2023-12-20T14:25:14;13.00;90.50
14142;DHT22;7151;52.246;4.820;2023-12-20T14:27:40;13.00;90.50
14142;DHT22;7151;52.246;4.820;2023-12-20T14:30:08;13.00;90.60
14142;DHT22;7151;52.246;4.820;2023-12-20T14:32:35;13.00;90.60
14142;DHT22;7151;52.246;4.820;2023-12-20T14:35:06;13.00;90.60
14142;DHT22;7151;52.246;4.820;2023-12-20T14:37:34;13.00;90.60
14142;DHT22;7151;52.246;4.820;2023-12-20T14:40:00;13.00;90.60
14142;DHT22;7151;52.246;4.820;2023-12-20T14:42:25;13.00;90.60
14142;DHT22;7151;52.246;4.820;2023-12-20T14:44:51;13.00;90.60
14142;DHT22;7151;52.246;4.820;2023-12-20T14:47:17;13.00;90.60
14142;DHT22;7151;52.246;4.820;2023-12-20T14:49:43;13.00;90.60
14142;DHT22;7151;52.246;4.820;2023-12-20T14:52:09;13.00;90.60
14142;DHT22;7151;52.246;4.820;2023-12-20T14:54:38;13.00;90.60
14142;DHT22;7151;52.246;4.820;2023-12-20T14:57:04;13.00;90.60
14142;DHT22;7151;52.246;4.820;2023-12-20T14:59:30;13.00;90.60
14142;DHT22;7151;52.246;4.820;2023-12-20T15:01:55;13.00;90.60
14142;DHT22;7151;52.246;4.820;2023-12-20T15:04:21;13.00;90.60
14142;DHT22;7151;52.246;4.820;2023-12-20T15:06:54;13.00;90.60
14142;DHT22;7151;52.246;4.820;2023-12-20T15:09:19;12.90;90.60
14142;DHT22;7151;52.246;4.820;2023-12-20T15:11:45;12.90;90.60
14142;DHT22;7151;52.246;4.820;2023-12-20T15:14:11;12.90;90.60
14142;DHT22;7151;52.246;4.820;2023-12-20T15:16:37;12.90;90.60
14142;DHT22;7151;52.246;4.820;2023-12-20T15:19:02;12.90;90.60
14142;DHT22;7151;52.246;4.820;2023-12-20T15:21:28;12.90;90.70
14142;DHT22;7151;52.246;4.820;2023-12-20T15:23:59;12.90;90.70
14142;DHT22;7151;52.246;4.820;2023-12-20T15:26:34;12.90;90.70
14142;DHT22;7151;52.246;4.820;2023-12-20T15:29:03;12.90;90.70
14142;DHT22;7151;52.246;4.820;2023-12-20T15:31:30;12.90;90.70
14142;DHT22;7151;52.246;4.820;2023-12-20T15:33:56;12.90;90.80
14142;DHT22;7151;52.246;4.820;2023-12-20T15:36:22;12.90;90.80
14142;DHT22;7151;52.246;4.820;2023-12-20T15:38:48;12.90;90.80
14142;DHT22;7151;52.246;4.820;2023-12-20T15:41:20;12.90;90.80
14142;DHT22;7151;52.246;4.820;2023-12-20T15:43:46;12.90;90.80
14142;DHT22;7151;52.246;4.820;2023-12-20T15:46:12;12.90;90.90
14142;DHT22;7151;52.246;4.820;2023-12-20T15:48:38;12.90;90.90
14142;DHT22;7151;52.246;4.820;2023-12-20T15:51:07;12.90;90.90